Time;durP1;ratioP1;P1;durP2;ratioP2;P2;SDS_P1;SDS_P2;PMS_P1;PMS_P2;Temp;Humidity;BMP_temperature;BMP_pressure;BME280_temperature;BME280_humidity;BME280_pressure;Samples;Min_cycle;Max_cycle;Signal;HPM_P1;HPM_P2
2023/08/12 00:00:50;;;;;;;;;1.50;1.50;;;;;;;;3;76976137;223420939;-76
2023/08/12 00:09:21;;;;;;;;;0.50;0.50;;;;;;;;334413;28;231866243;-77
2023/08/12 00:17:07;;;;;;;;;1.50;1.50;;;;;;;;345249;28;216905448;-76
2023/08/12 00:20:57;;;;;;;;;0.00;0.00;;;;;;;;311819;28;184763780;-76
2023/08/12 00:23:40;;;;;;;;;4.00;4.00;;;;;;;;645478;27;121561123;-74
2023/08/12 00:28:40;;;;;;;;;1.00;1.00;;;;;;;;148636;27;186236531;-76
2023/08/12 00:37:15;;;;;;;;;2.00;2.00;;;;;;;;1992527;28;213532605;-76
2023/08/12 00:44:31;;;;;;;;;0.50;0.50;;;;;;;;2;213737275;213737275;-74
2023/08/12 00:52:44;;;;;;;;;3.00;3.00;;;;;;;;2;252863695;252863695;-78
2023/08/12 00:59:57;;;;;;;;;1.00;1.00;;;;;;;;2;213871179;213871179;-79
2023/08/12 01:08:05;;;;;;;;;1.50;1.50;;;;;;;;2;253565872;253565872;-80
2023/08/12 01:15:12;;;;;;;;;2.50;2.50;;;;;;;;2;208358214;208358214;-85
2023/08/12 01:23:11;;;;;;;;;0.50;0.50;;;;;;;;2;245646835;245646835;-86
2023/08/12 01:29:47;;;;;;;;;0.50;0.50;;;;;;;;2;198406988;198406988;-86
2023/08/12 01:36:56;;;;;;;;;2.50;2.50;;;;;;;;1411456;27;195399921;-86
2023/08/12 01:42:39;;;;;;;;;1.00;1.00;;;;;;;;2;166649464;166649464;-89
2023/08/12 01:47:36;;;;;;;;;0.00;0.00;;;;;;;;2;196653748;196653748;-89
2023/08/12 01:50:01;;;;;;;;;2.00;2.00;;;;;;;;2925313;27;23409174;-89
2023/08/12 01:52:26;;;;;;;;;1.00;1.00;;;;;;;;5096927;28;28848;-87
2023/08/12 01:54:51;;;;;;;;;0.50;0.50;;;;;;;;5096779;28;28921;-88
2023/08/12 01:57:17;;;;;;;;;1.00;1.00;;;;;;;;5095855;28;32494;-84
2023/08/12 01:59:43;;;;;;;;;1.00;1.00;;;;;;;;5096666;28;28993;-85
2023/08/12 02:02:09;;;;;;;;;1.33;1.33;;;;;;;;5093830;28;45531;-86
2023/08/12 02:04:34;;;;;;;;;1.00;1.00;;;;;;;;5094043;27;45378;-89
2023/08/12 02:06:59;;;;;;;;;0.00;0.00;;;;;;;;5095296;28;39587;-84
2023/08/12 02:09:57;;;;;;;;;;;;;;;;;;703509;28;157951537;-87
2023/08/12 02:14:28;;;;;;;;;0.00;0.00;;;;;;;;168874;28;211448474;-86
2023/08/12 02:20:19;;;;;;;;;0.00;0.00;;;;;;;;731669;28;159819917;-86
2023/08/12 02:27:14;;;;;;;;;0.00;0.00;;;;;;;;350897;28;183512302;-80
2023/08/12 02:30:05;;;;;;;;;3.00;0.00;;;;;;;;2;169736401;169736401;-84
2023/08/12 02:37:48;;;;;;;;;0.00;0.00;;;;;;;;856876;27;166994447;-78
2023/08/12 02:40:13;;;;;;;;;2.00;0.00;;;;;;;;3386071;27;48533372;-79
2023/08/12 02:42:38;;;;;;;;;0.00;0.00;;;;;;;;5116021;27;28330;-78
2023/08/12 02:45:04;;;;;;;;;0.00;0.00;;;;;;;;5116489;27;28492;-78
2023/08/12 02:47:29;;;;;;;;;0.00;0.00;;;;;;;;5115623;27;28578;-78
2023/08/12 02:49:54;;;;;;;;;0.00;0.00;;;;;;;;5113838;27;28391;-78
2023/08/12 02:52:19;;;;;;;;;0.00;0.00;;;;;;;;5115471;27;28327;-77
2023/08/12 02:54:45;;;;;;;;;0.00;0.00;;;;;;;;5113927;27;28385;-77
2023/08/12 02:57:10;;;;;;;;;0.00;0.00;;;;;;;;5113024;27;40141;-77
2023/08/12 02:59:35;;;;;;;;;1.67;0.00;;;;;;;;5114172;27;28331;-76
2023/08/12 03:02:00;;;;;;;;;0.00;0.00;;;;;;;;5113705;27;28340;-74
2023/08/12 03:04:26;;;;;;;;;2.00;0.00;;;;;;;;5113722;27;28392;-75
2023/08/12 03:06:51;;;;;;;;;0.00;0.00;;;;;;;;5113389;27;28675;-74
2023/08/12 03:09:18;;;;;;;;;0.00;0.00;;;;;;;;5113709;27;28338;-75
2023/08/12 03:11:43;;;;;;;;;0.00;0.00;;;;;;;;5113649;27;28346;-75
2023/08/12 03:14:09;;;;;;;;;0.00;0.00;;;;;;;;5113642;27;28394;-75
2023/08/12 03:16:34;;;;;;;;;0.00;0.00;;;;;;;;5113651;27;29661;-75
2023/08/12 03:18:59;;;;;;;;;0.00;0.00;;;;;;;;5113652;27;28250;-74
2023/08/12 03:21:25;;;;;;;;;0.00;0.00;;;;;;;;5113421;27;28302;-75
2023/08/12 03:23:50;;;;;;;;;0.00;0.00;;;;;;;;5113453;27;28290;-74
2023/08/12 03:26:15;;;;;;;;;0.00;0.00;;;;;;;;5113060;27;28620;-75
2023/08/12 03:28:41;;;;;;;;;0.00;0.00;;;;;;;;5113284;27;28535;-75
2023/08/12 03:31:06;;;;;;;;;0.00;0.00;;;;;;;;5113389;27;28541;-75
2023/08/12 03:33:32;;;;;;;;;0.00;0.00;;;;;;;;5113303;27;28601;-75
2023/08/12 03:35:57;;;;;;;;;0.00;0.00;;;;;;;;5113355;27;29426;-74
2023/08/12 03:38:22;;;;;;;;;0.00;0.00;;;;;;;;5113215;27;28849;-72
2023/08/12 03:40:47;;;;;;;;;0.00;0.00;;;;;;;;5112770;27;28452;-73
2023/08/12 03:43:13;;;;;;;;;0.67;0.00;;;;;;;;5112408;27;28433;-74
2023/08/12 03:45:44;;;;;;;;;1.00;0.00;;;;;;;;5113119;27;29376;-74
2023/08/12 03:48:10;;;;;;;;;0.00;0.00;;;;;;;;5112853;27;28365;-74
2023/08/12 03:50:36;;;;;;;;;0.00;0.00;;;;;;;;5113119;27;28393;-74
2023/08/12 03:53:01;;;;;;;;;0.00;0.00;;;;;;;;5113227;27;28426;-74
2023/08/12 03:55:26;;;;;;;;;0.00;0.00;;;;;;;;5112717;27;28372;-76
2023/08/12 04:03:05;;;;;;;;;;;;;;;;;;3705137;27;233927295;-76
2023/08/12 04:11:23;;;;;;;;;0.00;0.00;;;;;;;;881745;27;238490058;-77
2023/08/12 04:19:58;;;;;;;;;0.00;0.00;;;;;;;;2;243074798;243074798;-76
2023/08/12 04:27:22;;;;;;;;;0.00;0.00;;;;;;;;2;211148769;211148769;-77
2023/08/12 04:35:59;;;;;;;;;0.00;0.00;;;;;;;;2;238011711;238011711;-76
2023/08/12 04:44:15;;;;;;;;;0.00;0.00;;;;;;;;2;261080997;261080997;-77
2023/08/12 04:52:57;;;;;;;;;0.00;0.00;;;;;;;;2;243068684;243068684;-77
2023/08/12 05:01:12;;;;;;;;;0.00;0.00;;;;;;;;2;261075907;261075907;-76
2023/08/12 05:09:45;;;;;;;;;0.00;0.00;;;;;;;;2;242940090;242940090;-77
2023/08/12 05:17:56;;;;;;;;;0.00;0.00;;;;;;;;2;258121228;258121228;-78
2023/08/12 05:26:37;;;;;;;;;1.50;1.50;;;;;;;;2;242401721;242401721;-78
2023/08/12 05:34:53;;;;;;;;;0.00;0.00;;;;;;;;2;261071119;261071119;-77
2023/08/12 05:43:35;;;;;;;;;0.00;0.00;;;;;;;;2;243073996;243073996;-79
2023/08/12 05:51:50;;;;;;;;;0.00;0.00;;;;;;;;2;261075965;261075965;-79
2023/08/12 05:56:32;;;;;;;;;0.00;0.00;;;;;;;;2;243072334;243072334;-80
2023/08/12 05:58:57;;;;;;;;;0.67;0.00;;;;;;;;5094282;27;28611;-79
2023/08/12 06:01:22;;;;;;;;;0.00;0.00;;;;;;;;5098165;27;28358;-81
2023/08/12 06:03:48;;;;;;;;;0.00;0.00;;;;;;;;5098548;27;27831;-80
2023/08/12 06:06:13;;;;;;;;;0.00;0.00;;;;;;;;5097760;27;28441;-79
2023/08/12 06:08:38;;;;;;;;;0.00;0.00;;;;;;;;5098486;27;28527;-79
2023/08/12 06:11:03;;;;;;;;;0.00;0.00;;;;;;;;5098154;27;28543;-80
2023/08/12 06:13:28;;;;;;;;;0.00;0.00;;;;;;;;5097321;27;28425;-80
2023/08/12 06:23:46;;;;;;;;;;;;;;;;;;3343110;27;243067493;-80
2023/08/12 06:32:01;;;;;;;;;0.00;0.00;;;;;;;;2;261074659;261074659;-80
2023/08/12 06:40:43;;;;;;;;;0.00;0.00;;;;;;;;2;243070144;243070144;-80
2023/08/12 06:48:59;;;;;;;;;0.00;0.00;;;;;;;;2;261075991;261075991;-79
2023/08/12 06:57:41;;;;;;;;;0.00;0.00;;;;;;;;2;243067907;243067907;-82
2023/08/12 07:05:57;;;;;;;;;0.00;0.00;;;;;;;;2;261076949;261076949;-79
2023/08/12 07:14:39;;;;;;;;;0.00;0.00;;;;;;;;2;243070479;243070479;-82
2023/08/12 07:22:55;;;;;;;;;0.50;0.50;;;;;;;;2;261074676;261074676;-81
2023/08/12 07:31:36;;;;;;;;;0.00;0.00;;;;;;;;2;243070592;243070592;-82
2023/08/12 07:36:37;;;;;;;;;0.50;0.50;;;;;;;;2;241337704;241337704;-78
2023/08/12 07:45:17;;;;;;;;;0.00;0.00;;;;;;;;2;241988036;241988036;-78
2023/08/12 07:53:31;;;;;;;;;0.00;0.00;;;;;;;;2;261075882;261075882;-82
2023/08/12 07:55:57;;;;;;;;;0.00;0.00;;;;;;;;372690;27;124486101;-81
2023/08/12 08:00:31;;;;;;;;;;;;;;;;;;858273;27;122686743;-81
2023/08/12 08:04:50;;;;;;;;;0.50;0.50;;;;;;;;3;48223849;196663821;-78
2023/08/12 08:07:16;;;;;;;;;0.00;0.00;;;;;;;;3799981;27;34726187;-79
2023/08/12 08:09:42;;;;;;;;;0.00;0.00;;;;;;;;5113191;27;28681;-80
2023/08/12 08:12:08;;;;;;;;;0.00;0.00;;;;;;;;5112555;27;28346;-79
2023/08/12 08:14:33;;;;;;;;;0.00;0.00;;;;;;;;5112563;27;28409;-80
2023/08/12 08:16:58;;;;;;;;;1.67;0.33;;;;;;;;5113000;27;27927;-79
2023/08/12 08:19:24;;;;;;;;;0.00;0.00;;;;;;;;5113454;27;28479;-80
2023/08/12 08:21:49;;;;;;;;;0.33;0.33;;;;;;;;5112883;27;28420;-80
2023/08/12 08:24:14;;;;;;;;;0.00;0.00;;;;;;;;5113294;27;28401;-79
2023/08/12 08:26:42;;;;;;;;;0.00;0.00;;;;;;;;5113325;27;28455;-79
2023/08/12 08:29:08;;;;;;;;;0.00;0.00;;;;;;;;5113600;27;28394;-77
2023/08/12 08:31:34;;;;;;;;;0.00;0.00;;;;;;;;5113285;27;28546;-79
2023/08/12 08:33:59;;;;;;;;;0.00;0.00;;;;;;;;5113391;27;28408;-79
2023/08/12 08:36:24;;;;;;;;;0.33;0.33;;;;;;;;5113561;27;28433;-80
2023/08/12 08:38:49;;;;;;;;;0.00;0.00;;;;;;;;5117675;27;28379;-80
2023/08/12 08:41:16;;;;;;;;;1.33;0.00;;;;;;;;5115980;27;29945;-80
2023/08/12 08:43:43;;;;;;;;;0.67;0.00;;;;;;;;5114276;27;28342;-79
2023/08/12 08:46:09;;;;;;;;;0.00;0.00;;;;;;;;5113485;27;27829;-81
2023/08/12 08:48:35;;;;;;;;;0.67;0.67;;;;;;;;5113468;27;28243;-80
2023/08/12 08:51:01;;;;;;;;;0.00;0.00;;;;;;;;5118984;27;28520;-79
2023/08/12 08:53:26;;;;;;;;;1.67;0.33;;;;;;;;5123263;27;29094;-79
2023/08/12 08:55:52;;;;;;;;;0.00;0.00;;;;;;;;5122192;27;28472;-78
2023/08/12 08:58:17;;;;;;;;;0.00;0.00;;;;;;;;5126925;27;28482;-78
2023/08/12 09:00:43;;;;;;;;;0.00;0.00;;;;;;;;5137251;27;28616;-78
2023/08/12 09:03:09;;;;;;;;;0.00;0.00;;;;;;;;5140155;27;27811;-77
2023/08/12 09:05:35;;;;;;;;;0.00;0.00;;;;;;;;5140865;27;27906;-77
2023/08/12 09:08:01;;;;;;;;;0.00;0.00;;;;;;;;5141351;27;27748;-77
2023/08/12 09:10:27;;;;;;;;;0.00;0.00;;;;;;;;5140554;27;28328;-77
2023/08/12 09:12:56;;;;;;;;;0.00;0.00;;;;;;;;5138581;27;28510;-76
2023/08/12 09:15:21;;;;;;;;;0.00;0.00;;;;;;;;5135125;27;28388;-76
2023/08/12 09:17:47;;;;;;;;;0.00;0.00;;;;;;;;5136028;27;27915;-76
2023/08/12 09:20:12;;;;;;;;;0.00;0.00;;;;;;;;5132793;27;28442;-75
2023/08/12 09:22:38;;;;;;;;;0.00;0.00;;;;;;;;5130640;27;28462;-75
2023/08/12 09:25:04;;;;;;;;;0.00;0.00;;;;;;;;5127167;27;27820;-74
2023/08/12 09:27:33;;;;;;;;;0.00;0.00;;;;;;;;5122804;27;28468;-74
2023/08/12 09:29:58;;;;;;;;;0.00;0.00;;;;;;;;5121489;27;28434;-75
2023/08/12 09:32:23;;;;;;;;;1.67;0.00;;;;;;;;5123240;27;28094;-75
2023/08/12 09:34:52;;;;;;;;;0.33;0.00;;;;;;;;5135621;27;28429;-74
2023/08/12 09:37:18;;;;;;;;;0.00;0.00;;;;;;;;5141874;27;27943;-72
2023/08/12 09:39:44;;;;;;;;;2.00;1.00;;;;;;;;5141012;27;29829;-74
2023/08/12 09:42:10;;;;;;;;;0.00;0.00;;;;;;;;5143490;27;28553;-73
2023/08/12 09:44:36;;;;;;;;;0.67;0.67;;;;;;;;5145021;27;27802;-74
2023/08/12 09:47:01;;;;;;;;;0.00;0.00;;;;;;;;5144774;27;27748;-73
2023/08/12 09:49:27;;;;;;;;;1.00;1.00;;;;;;;;5143320;27;28263;-74
2023/08/12 09:51:53;;;;;;;;;2.33;0.00;;;;;;;;5144265;27;28407;-72
2023/08/12 09:54:19;;;;;;;;;0.00;0.00;;;;;;;;5134719;27;28365;-73
2023/08/12 09:56:46;;;;;;;;;0.33;0.33;;;;;;;;5135621;27;27771;-73
2023/08/12 09:59:12;;;;;;;;;1.33;0.00;;;;;;;;5124805;27;28519;-73
2023/08/12 10:01:38;;;;;;;;;2.00;1.00;;;;;;;;5138278;27;27875;-73
2023/08/12 10:04:05;;;;;;;;;1.67;1.00;;;;;;;;5129972;27;28401;-72
2023/08/12 10:06:31;;;;;;;;;1.00;1.00;;;;;;;;5113883;27;28422;-74
2023/08/12 10:08:56;;;;;;;;;1.00;1.00;;;;;;;;5114833;27;28427;-73
2023/08/12 10:11:22;;;;;;;;;0.00;0.00;;;;;;;;5114487;27;27965;-73
2023/08/12 10:13:47;;;;;;;;;0.00;0.00;;;;;;;;5114866;27;28349;-74
2023/08/12 10:16:13;;;;;;;;;1.00;0.33;;;;;;;;5114734;27;28321;-73
2023/08/12 10:18:38;;;;;;;;;0.33;0.33;;;;;;;;5114790;27;28689;-73
2023/08/12 10:21:06;;;;;;;;;2.00;0.00;;;;;;;;5114745;27;28464;-73
2023/08/12 10:23:31;;;;;;;;;0.00;0.00;;;;;;;;5113393;27;28664;-73
2023/08/12 10:25:57;;;;;;;;;0.33;0.33;;;;;;;;5114465;27;28428;-73
2023/08/12 10:28:23;;;;;;;;;0.00;0.00;;;;;;;;5114311;27;28696;-73
2023/08/12 10:30:48;;;;;;;;;0.00;0.00;;;;;;;;5114167;27;28629;-73
2023/08/12 10:33:16;;;;;;;;;0.00;0.00;;;;;;;;5113188;27;28468;-74
2023/08/12 10:35:46;;;;;;;;;0.00;0.00;;;;;;;;5114399;27;28446;-74
2023/08/12 10:38:13;;;;;;;;;1.00;1.00;;;;;;;;5114377;27;29213;-74
2023/08/12 10:40:38;;;;;;;;;0.00;0.00;;;;;;;;5114156;27;28448;-74
2023/08/12 10:43:03;;;;;;;;;0.00;0.00;;;;;;;;5114072;27;28427;-74
2023/08/12 10:45:42;;;;;;;;;1.00;1.00;;;;;;;;5114107;27;28495;-74
2023/08/12 10:48:08;;;;;;;;;0.00;0.00;;;;;;;;5114167;27;28403;-74
2023/08/12 10:50:34;;;;;;;;;1.00;0.00;;;;;;;;5112720;27;28595;-74
2023/08/12 10:52:59;;;;;;;;;0.00;0.00;;;;;;;;5113692;27;28305;-74
2023/08/12 10:55:25;;;;;;;;;0.00;0.00;;;;;;;;5112358;27;28517;-74
2023/08/12 10:57:52;;;;;;;;;1.00;0.00;;;;;;;;5095436;27;28463;-74
2023/08/12 11:00:18;;;;;;;;;0.00;0.00;;;;;;;;5113555;27;28389;-74
2023/08/12 11:02:44;;;;;;;;;1.00;0.00;;;;;;;;5113672;27;28574;-74
2023/08/12 11:05:10;;;;;;;;;0.00;0.00;;;;;;;;5113752;27;28425;-75
2023/08/12 11:07:38;;;;;;;;;0.00;0.00;;;;;;;;5113972;27;28519;-76
2023/08/12 11:10:09;;;;;;;;;0.00;0.00;;;;;;;;5113357;27;28466;-78
2023/08/12 11:12:35;;;;;;;;;0.00;0.00;;;;;;;;5093170;27;28584;-80
2023/08/12 11:15:02;;;;;;;;;0.00;0.00;;;;;;;;5113349;27;28620;-80
2023/08/12 11:17:34;;;;;;;;;1.00;0.00;;;;;;;;5113011;27;29982;-74
2023/08/12 11:20:00;;;;;;;;;0.00;0.00;;;;;;;;5110748;27;28964;-72
2023/08/12 11:22:26;;;;;;;;;0.00;0.00;;;;;;;;5112164;27;28522;-73
2023/08/12 11:24:51;;;;;;;;;0.00;0.00;;;;;;;;5111680;27;28507;-72
2023/08/12 11:27:17;;;;;;;;;0.00;0.00;;;;;;;;5111400;27;28500;-73
2023/08/12 11:29:43;;;;;;;;;0.00;0.00;;;;;;;;5111054;27;28480;-76
2023/08/12 11:32:08;;;;;;;;;1.00;0.00;;;;;;;;5111754;27;28406;-76
2023/08/12 11:34:33;;;;;;;;;0.00;0.00;;;;;;;;5112187;27;28386;-75
2023/08/12 11:36:58;;;;;;;;;0.00;0.00;;;;;;;;5112049;27;28514;-76
2023/08/12 11:39:24;;;;;;;;;0.00;0.00;;;;;;;;5111537;27;28579;-74
2023/08/12 11:41:50;;;;;;;;;0.00;0.00;;;;;;;;5112749;27;28736;-78
2023/08/12 11:44:16;;;;;;;;;0.67;0.00;;;;;;;;5113079;27;28537;-75
2023/08/12 11:46:41;;;;;;;;;1.33;0.00;;;;;;;;5109636;27;28541;-77
2023/08/12 11:49:06;;;;;;;;;0.00;0.00;;;;;;;;5112269;27;28542;-76
2023/08/12 11:51:32;;;;;;;;;2.00;0.00;;;;;;;;5111151;27;28585;-78
2023/08/12 11:53:57;;;;;;;;;0.00;0.00;;;;;;;;5112119;27;28572;-77
2023/08/12 11:56:23;;;;;;;;;0.00;0.00;;;;;;;;5111375;27;28729;-77
2023/08/12 11:58:50;;;;;;;;;0.67;0.00;;;;;;;;5111440;27;28547;-76
2023/08/12 12:01:15;;;;;;;;;0.00;0.00;;;;;;;;5111786;27;28476;-75
2023/08/12 12:03:41;;;;;;;;;0.00;0.00;;;;;;;;5111548;27;28546;-77
2023/08/12 12:06:06;;;;;;;;;0.00;0.00;;;;;;;;5111529;27;29262;-77
2023/08/12 12:08:32;;;;;;;;;0.00;0.00;;;;;;;;5111643;27;28496;-75
2023/08/12 12:11:03;;;;;;;;;0.00;0.00;;;;;;;;5111899;27;28475;-77
2023/08/12 12:17:38;;;;;;;;;0.00;0.00;;;;;;;;3970413;27;193439262;-75
2023/08/12 12:20:05;;;;;;;;;0.67;0.00;;;;;;;;4477988;27;9402651;-76
2023/08/12 12:22:32;;;;;;;;;0.00;0.00;;;;;;;;5110348;27;28565;-78
2023/08/12 12:24:59;;;;;;;;;0.67;0.67;;;;;;;;5112496;27;28493;-76
2023/08/12 12:27:24;;;;;;;;;0.00;0.00;;;;;;;;5112543;27;28567;-76
2023/08/12 12:29:49;;;;;;;;;0.67;0.00;;;;;;;;5112451;27;28439;-75
2023/08/12 12:32:17;;;;;;;;;0.00;0.00;;;;;;;;5112823;27;28512;-76
2023/08/12 12:34:42;;;;;;;;;0.00;0.00;;;;;;;;5112445;27;28399;-75
2023/08/12 12:37:08;;;;;;;;;0.00;0.00;;;;;;;;5112122;27;29530;-75
2023/08/12 12:39:34;;;;;;;;;1.00;0.00;;;;;;;;5112095;27;28408;-75
2023/08/12 12:41:59;;;;;;;;;0.00;0.00;;;;;;;;5112279;27;28286;-75
2023/08/12 12:44:24;;;;;;;;;0.00;0.00;;;;;;;;5111717;27;28588;-74
2023/08/12 12:46:50;;;;;;;;;0.00;0.00;;;;;;;;5112446;27;28291;-75
2023/08/12 12:49:15;;;;;;;;;0.00;0.00;;;;;;;;5112726;27;28433;-75
2023/08/12 12:51:40;;;;;;;;;0.00;0.00;;;;;;;;5112511;27;28426;-75
2023/08/12 12:54:05;;;;;;;;;0.00;0.00;;;;;;;;5112117;27;28513;-75
2023/08/12 12:56:30;;;;;;;;;0.00;0.00;;;;;;;;5112375;27;28463;-75
2023/08/12 12:58:56;;;;;;;;;0.00;0.00;;;;;;;;5112006;27;28432;-75
2023/08/12 13:01:21;;;;;;;;;0.33;0.33;;;;;;;;5112158;27;28434;-75
2023/08/12 13:03:46;;;;;;;;;0.00;0.00;;;;;;;;5112370;27;28515;-75
2023/08/12 13:06:11;;;;;;;;;1.00;0.33;;;;;;;;5112053;27;28396;-75
2023/08/12 13:08:36;;;;;;;;;0.00;0.00;;;;;;;;5110932;27;28789;-75
2023/08/12 13:11:02;;;;;;;;;1.00;0.00;;;;;;;;5112014;27;28348;-75
2023/08/12 13:13:27;;;;;;;;;0.00;0.00;;;;;;;;5112050;27;28313;-75
2023/08/12 13:15:52;;;;;;;;;0.00;0.00;;;;;;;;5112111;27;29225;-75
2023/08/12 13:18:17;;;;;;;;;1.00;1.00;;;;;;;;5115532;27;28387;-75
2023/08/12 13:20:43;;;;;;;;;0.00;0.00;;;;;;;;5115143;27;28500;-74
2023/08/12 13:23:08;;;;;;;;;0.00;0.00;;;;;;;;5115773;27;28389;-75
2023/08/12 13:25:33;;;;;;;;;1.33;0.00;;;;;;;;5115286;27;28517;-75
2023/08/12 13:27:59;;;;;;;;;0.00;0.00;;;;;;;;5115318;27;28400;-75
2023/08/12 13:30:24;;;;;;;;;0.00;0.00;;;;;;;;5116131;27;28415;-74
2023/08/12 13:32:50;;;;;;;;;0.33;0.33;;;;;;;;5115471;27;28490;-75
2023/08/12 13:35:15;;;;;;;;;0.00;0.00;;;;;;;;5115414;27;29067;-76
2023/08/12 13:37:40;;;;;;;;;0.00;0.00;;;;;;;;5115369;27;29014;-76
2023/08/12 13:40:05;;;;;;;;;0.00;0.00;;;;;;;;5114821;27;31332;-75
2023/08/12 13:42:31;;;;;;;;;0.00;0.00;;;;;;;;5113199;27;31909;-76
2023/08/12 13:44:56;;;;;;;;;0.00;0.00;;;;;;;;5113793;27;41403;-75
2023/08/12 13:47:21;;;;;;;;;0.00;0.00;;;;;;;;5114004;27;38260;-76
2023/08/12 13:49:46;;;;;;;;;2.00;0.00;;;;;;;;5112805;27;45740;-75
2023/08/12 13:52:12;;;;;;;;;1.00;1.00;;;;;;;;5111907;27;59029;-75
2023/08/12 13:54:37;;;;;;;;;0.00;0.00;;;;;;;;5112626;27;53996;-76
2023/08/12 13:57:03;;;;;;;;;1.00;0.00;;;;;;;;5113202;27;36160;-75
2023/08/12 13:59:29;;;;;;;;;0.00;0.00;;;;;;;;5114517;27;33692;-75
2023/08/12 14:01:54;;;;;;;;;1.00;1.00;;;;;;;;5113058;27;43571;-76
2023/08/12 14:04:19;;;;;;;;;0.00;0.00;;;;;;;;5108402;27;68833;-74
2023/08/12 14:06:45;;;;;;;;;0.00;0.00;;;;;;;;5111599;27;47992;-74
2023/08/12 14:09:12;;;;;;;;;2.00;1.00;;;;;;;;5112968;27;40852;-74
2023/08/12 14:11:37;;;;;;;;;0.33;0.33;;;;;;;;5111571;27;46983;-76
2023/08/12 14:14:03;;;;;;;;;1.75;0.50;;;;;;;;5112992;27;39339;-74
2023/08/12 14:16:29;;;;;;;;;0.00;0.00;;;;;;;;5114451;27;29314;-73
2023/08/12 14:18:54;;;;;;;;;0.00;0.00;;;;;;;;5114298;27;29022;-74
2023/08/12 14:21:19;;;;;;;;;1.00;1.00;;;;;;;;5114560;27;28444;-74
2023/08/12 14:23:44;;;;;;;;;0.33;0.00;;;;;;;;5112691;27;29725;-73
2023/08/12 14:26:10;;;;;;;;;0.67;0.00;;;;;;;;5113007;27;28449;-72
2023/08/12 14:28:35;;;;;;;;;0.33;0.33;;;;;;;;5114328;27;28412;-74
2023/08/12 14:31:00;;;;;;;;;0.67;0.67;;;;;;;;5114623;27;28426;-75
2023/08/12 14:33:25;;;;;;;;;0.67;0.00;;;;;;;;5114101;27;28499;-74
2023/08/12 14:35:52;;;;;;;;;0.00;0.00;;;;;;;;5114531;27;28371;-74
2023/08/12 14:38:18;;;;;;;;;0.00;0.00;;;;;;;;5114642;27;28425;-74
2023/08/12 14:40:46;;;;;;;;;0.33;0.00;;;;;;;;5114475;27;28417;-74
2023/08/12 14:43:11;;;;;;;;;0.33;0.33;;;;;;;;5114552;27;28491;-73
2023/08/12 14:45:36;;;;;;;;;0.00;0.00;;;;;;;;5114289;27;28419;-74
2023/08/12 14:48:02;;;;;;;;;0.00;0.00;;;;;;;;5114625;27;28403;-74
2023/08/12 14:50:27;;;;;;;;;0.50;0.50;;;;;;;;5113250;27;28444;-74
2023/08/12 14:52:52;;;;;;;;;0.00;0.00;;;;;;;;5114277;27;28376;-74
2023/08/12 14:55:17;;;;;;;;;1.00;1.00;;;;;;;;5114570;27;28361;-75
2023/08/12 14:57:43;;;;;;;;;0.00;0.00;;;;;;;;5114210;27;28422;-74
2023/08/12 15:00:10;;;;;;;;;1.00;0.00;;;;;;;;5114315;27;28421;-74
2023/08/12 15:02:35;;;;;;;;;0.00;0.00;;;;;;;;5114220;27;29635;-73
2023/08/12 15:05:01;;;;;;;;;0.00;0.00;;;;;;;;5114391;27;27835;-74
2023/08/12 15:07:26;;;;;;;;;2.00;0.00;;;;;;;;5113110;27;28386;-74
2023/08/12 15:09:54;;;;;;;;;0.33;0.00;;;;;;;;5113773;27;30171;-73
2023/08/12 15:12:20;;;;;;;;;0.00;0.00;;;;;;;;5113870;27;29339;-74
2023/08/12 15:14:45;;;;;;;;;0.00;0.00;;;;;;;;5112668;27;29748;-74
2023/08/12 15:17:11;;;;;;;;;0.00;0.00;;;;;;;;5113984;27;28483;-74
2023/08/12 15:19:36;;;;;;;;;1.00;0.00;;;;;;;;5113701;27;28490;-74
2023/08/12 15:22:01;;;;;;;;;0.00;0.00;;;;;;;;5113600;27;28499;-74
2023/08/12 15:24:26;;;;;;;;;1.00;1.00;;;;;;;;5113815;27;28497;-74
2023/08/12 15:26:51;;;;;;;;;0.25;0.25;;;;;;;;5114065;27;28537;-73
2023/08/12 15:29:17;;;;;;;;;0.25;0.00;;;;;;;;5113482;27;28526;-74
2023/08/12 15:31:42;;;;;;;;;0.67;0.67;;;;;;;;5113491;27;29295;-74
2023/08/12 15:34:08;;;;;;;;;1.00;0.00;;;;;;;;5113386;27;28005;-74
2023/08/12 15:36:35;;;;;;;;;1.00;0.00;;;;;;;;5113848;27;28561;-74
2023/08/12 15:39:00;;;;;;;;;0.33;0.33;;;;;;;;5112572;27;28505;-74
2023/08/12 15:41:25;;;;;;;;;1.00;1.00;;;;;;;;5113532;27;29519;-74
2023/08/12 15:43:51;;;;;;;;;0.00;0.00;;;;;;;;5112645;27;28339;-75
2023/08/12 15:46:16;;;;;;;;;1.67;0.00;;;;;;;;5113259;27;28505;-74
2023/08/12 15:48:42;;;;;;;;;0.00;0.00;;;;;;;;5113437;27;28391;-74
2023/08/12 15:51:07;;;;;;;;;1.00;1.00;;;;;;;;5113538;27;28416;-73
2023/08/12 15:53:33;;;;;;;;;0.33;0.00;;;;;;;;5113513;27;28417;-73
2023/08/12 15:55:58;;;;;;;;;0.00;0.00;;;;;;;;5113443;27;28337;-74
2023/08/12 15:58:24;;;;;;;;;0.00;0.00;;;;;;;;5113252;27;28369;-74
2023/08/12 16:00:49;;;;;;;;;0.00;0.00;;;;;;;;5112806;27;28542;-73
2023/08/12 16:03:17;;;;;;;;;0.33;0.33;;;;;;;;5113311;27;28514;-73
2023/08/12 16:05:42;;;;;;;;;0.00;0.00;;;;;;;;5113204;27;28412;-73
2023/08/12 16:08:08;;;;;;;;;1.00;1.00;;;;;;;;5094699;27;28538;-74
2023/08/12 16:10:34;;;;;;;;;1.00;0.00;;;;;;;;5113369;27;28421;-74
2023/08/12 16:12:59;;;;;;;;;1.00;1.00;;;;;;;;5113020;27;28369;-74
2023/08/12 16:15:24;;;;;;;;;0.00;0.00;;;;;;;;5113015;27;28374;-74
2023/08/12 16:17:49;;;;;;;;;0.00;0.00;;;;;;;;5113056;27;28475;-74
2023/08/12 16:20:15;;;;;;;;;1.00;1.00;;;;;;;;5112922;27;28594;-74
2023/08/12 16:22:40;;;;;;;;;0.33;0.33;;;;;;;;5112778;27;28518;-75
2023/08/12 16:25:06;;;;;;;;;0.67;0.67;;;;;;;;5113099;27;28479;-74
2023/08/12 16:27:32;;;;;;;;;0.00;0.00;;;;;;;;5113026;27;28415;-73
2023/08/12 16:29:57;;;;;;;;;1.00;0.67;;;;;;;;5111266;27;28585;-73
2023/08/12 16:32:22;;;;;;;;;0.00;0.00;;;;;;;;5112901;27;28398;-74
2023/08/12 16:34:47;;;;;;;;;1.00;1.00;;;;;;;;5112641;27;28386;-75
2023/08/12 16:37:13;;;;;;;;;1.67;1.67;;;;;;;;5113032;27;28595;-74
2023/08/12 16:39:38;;;;;;;;;1.50;0.00;;;;;;;;5112367;27;28580;-74
2023/08/12 16:42:03;;;;;;;;;0.00;0.00;;;;;;;;5112298;27;28318;-76
2023/08/12 16:44:28;;;;;;;;;0.00;0.00;;;;;;;;5112503;27;28577;-75
2023/08/12 16:46:54;;;;;;;;;3.00;2.00;;;;;;;;5112071;27;28498;-75
2023/08/12 16:49:19;;;;;;;;;1.25;1.00;;;;;;;;5112306;27;28637;-75
2023/08/12 16:51:44;;;;;;;;;0.33;0.33;;;;;;;;5111751;27;28392;-75
2023/08/12 16:54:09;;;;;;;;;0.67;0.67;;;;;;;;5112407;27;28593;-75
2023/08/12 16:56:35;;;;;;;;;2.00;1.00;;;;;;;;5112131;27;28445;-76
2023/08/12 16:59:00;;;;;;;;;0.67;0.67;;;;;;;;5111638;27;29311;-74
2023/08/12 17:01:25;;;;;;;;;2.00;0.00;;;;;;;;5111960;27;28449;-75
2023/08/12 17:03:50;;;;;;;;;1.00;1.00;;;;;;;;5111907;27;28543;-75
2023/08/12 17:06:16;;;;;;;;;0.33;0.33;;;;;;;;5112291;27;28321;-75
2023/08/12 17:08:41;;;;;;;;;3.33;1.00;;;;;;;;5110234;27;30590;-73
2023/08/12 17:11:06;;;;;;;;;0.33;0.33;;;;;;;;5112269;27;28342;-74
2023/08/12 17:13:32;;;;;;;;;1.00;1.00;;;;;;;;5111763;27;28530;-73
2023/08/12 17:15:57;;;;;;;;;2.00;0.67;;;;;;;;5111866;27;28453;-73
2023/08/12 17:18:22;;;;;;;;;3.67;1.00;;;;;;;;5111936;27;28488;-74
2023/08/12 17:20:48;;;;;;;;;1.33;0.33;;;;;;;;5111835;27;28575;-74
2023/08/12 17:23:13;;;;;;;;;2.00;1.00;;;;;;;;5112025;27;28429;-74
2023/08/12 17:25:39;;;;;;;;;4.00;1.00;;;;;;;;5111001;27;28496;-74
2023/08/12 17:28:04;;;;;;;;;1.33;1.00;;;;;;;;5093403;27;30555;-73
2023/08/12 17:30:30;;;;;;;;;1.00;1.00;;;;;;;;5111994;27;28425;-73
2023/08/12 17:32:55;;;;;;;;;0.00;0.00;;;;;;;;5112040;27;27909;-73
2023/08/12 17:35:20;;;;;;;;;0.00;0.00;;;;;;;;5111835;27;28418;-74
2023/08/12 17:37:45;;;;;;;;;1.00;1.00;;;;;;;;5112075;27;28582;-74
2023/08/12 17:40:11;;;;;;;;;1.00;1.00;;;;;;;;5111497;27;28612;-73
2023/08/12 17:42:36;;;;;;;;;0.00;0.00;;;;;;;;5110542;27;28505;-74
2023/08/12 17:45:01;;;;;;;;;0.00;0.00;;;;;;;;5110551;27;28394;-74
2023/08/12 17:47:27;;;;;;;;;1.33;1.33;;;;;;;;5111868;27;28459;-74
2023/08/12 17:49:52;;;;;;;;;0.00;0.00;;;;;;;;5111786;27;28438;-74
2023/08/12 17:52:17;;;;;;;;;0.33;0.33;;;;;;;;5111523;27;28416;-74
2023/08/12 17:54:42;;;;;;;;;1.00;1.00;;;;;;;;5111637;27;28405;-73
2023/08/12 17:57:08;;;;;;;;;0.00;0.00;;;;;;;;5111065;27;29137;-74
2023/08/12 17:59:33;;;;;;;;;1.33;0.67;;;;;;;;5111406;27;28326;-74
2023/08/12 18:01:58;;;;;;;;;0.67;0.00;;;;;;;;5111624;27;28355;-74
2023/08/12 18:04:24;;;;;;;;;2.67;0.33;;;;;;;;5114602;27;28330;-74
2023/08/12 18:06:49;;;;;;;;;3.00;2.00;;;;;;;;5115086;27;28800;-75
2023/08/12 18:09:15;;;;;;;;;1.00;0.00;;;;;;;;5113639;27;29522;-75
2023/08/12 18:11:40;;;;;;;;;1.33;1.33;;;;;;;;5115171;27;28463;-75
2023/08/12 18:14:05;;;;;;;;;2.00;2.00;;;;;;;;5115262;27;28406;-75
2023/08/12 18:16:33;;;;;;;;;1.00;0.67;;;;;;;;5115037;27;29395;-76
2023/08/12 18:18:58;;;;;;;;;1.00;1.00;;;;;;;;5114243;27;28326;-76
2023/08/12 18:21:23;;;;;;;;;1.00;1.00;;;;;;;;5114466;27;28465;-76
2023/08/12 18:23:48;;;;;;;;;2.00;2.00;;;;;;;;5114741;27;28504;-76
2023/08/12 18:26:13;;;;;;;;;2.00;2.00;;;;;;;;5114455;27;28448;-76
2023/08/12 18:28:39;;;;;;;;;1.67;1.67;;;;;;;;5114339;27;28322;-76
2023/08/12 18:31:04;;;;;;;;;1.00;1.00;;;;;;;;5114801;27;28416;-72
2023/08/12 18:33:29;;;;;;;;;0.00;0.00;;;;;;;;5114179;27;28502;-76